Peleus — V2FV2 — position and weather

sailwx.info

Track history (hours):
 
Tides and Currents Weather Stations Pressure Air Temp Water Temp Dewpoint Dewpoint Depression Visibility Wind Speed Wind Dir Waves Ship Positions

Peleus

Last reported at 2014-Jul-23 04:28 UTC. Time now 2014-Jul-23 07:47 UTC.
Position N 39°37' W 000°10'.

Length 88 m; draft 5.7 m.

Type: Ship. MMSI: 305810000.

Date/timePositionNaut miles runAvg speedWind from/ knotsBaromVisibWave heightAir tempDewpointWater temp
2014-Jul-23 04:28N 39°37' W 000°10'0 0.0
2014-Jul-23 03:22N 39°37' W 000°10'0 0.0
2014-Jul-23 02:28N 39°37' W 000°10'0 0.0
2014-Jul-23 01:28N 39°37' W 000°10'0 0.0
2014-Jul-23 00:28N 39°37' W 000°10'0 0.0
2014-Jul-22 23:28N 39°37' W 000°10'0 0.0
2014-Jul-22 22:31N 39°37' W 000°10'0 0.0
2014-Jul-22 19:10N 39°37' W 000°10'0 0.0
2014-Jul-22 18:28N 39°37' W 000°10'2 2.1
2014-Jul-22 17:19N 39°38' W 000°12'1 0.1
2014-Jul-22 00:31N 39°39' W 000°13'3 0.1
2014-Jul-20 03:03N 39°37' W 000°09'0 0.0
2014-Jul-20 00:27N 39°37' W 000°10'0 0.0
2014-Jul-19 23:27N 39°37' W 000°10'2 0.3
2014-Jul-19 16:21N 39°37' W 000°07'7 7.8
2014-Jul-19 15:25N 39°34' E 000°02'7 8.4
2014-Jul-19 14:33N 39°33' E 000°11'8 8.4
2014-Jul-19 13:33N 39°31' E 000°22'19 8.4
2014-Jul-19 11:16N 39°26' E 000°46'14 8.2
2014-Jul-19 09:30N 39°23' E 001°04'8 7.9
2014-Jul-19 08:33N 39°21' E 001°14'8 7.9
2014-Jul-19 07:33N 39°19' E 001°24'8 8.3
2014-Jul-19 06:33N 39°17' E 001°34'8 8.1
2014-Jul-19 05:33N 39°16' E 001°44'8 8.2
2014-Jul-19 04:33N 39°14' E 001°55'8 8.4
2014-Jul-19 03:33N 39°12' E 002°05'8 8.4
2014-Jul-19 02:33N 39°10' E 002°16'8 8.2
2014-Jul-19 01:33N 39°08' E 002°26'8 7.9
2014-Jul-19 00:33N 39°07' E 002°36'8 7.9
2014-Jul-18 23:33N 39°05' E 002°46'8 7.8
2014-Jul-18 22:33N 39°03' E 002°56'8 7.8
2014-Jul-18 21:33N 39°02' E 003°06'8 8.0
2014-Jul-18 20:33N 38°60' E 003°16'8 8.0
2014-Jul-18 19:33N 38°58' E 003°26'8 8.1
2014-Jul-18 18:33N 38°56' E 003°36'8 8.1
2014-Jul-18 17:33N 38°54' E 003°46'8 8.1
2014-Jul-18 16:32N 38°52' E 003°56'8 8.3
2014-Jul-18 15:33N 38°50' E 004°06'17 8.3
2014-Jul-18 13:33N 38°46' E 004°27'8 8.3
2014-Jul-18 12:33N 38°44' E 004°37'8 8.3
2014-Jul-18 11:33N 38°41' E 004°47'8 8.4
2014-Jul-18 10:33N 38°39' E 004°58'9 8.6
2014-Jul-18 09:33N 38°37' E 005°08'10 8.4
2014-Jul-18 08:20N 38°34' E 005°21'7 8.4
2014-Jul-18 07:33N 38°32' E 005°29'8 8.5
2014-Jul-18 06:33N 38°30' E 005°39'9 8.7
2014-Jul-18 05:33N 38°27' E 005°50'10 8.6
2014-Jul-18 04:26N 38°23' E 006°01'8 8.8
2014-Jul-18 03:32N 38°20' E 006°11'12 9.4
2014-Jul-18 02:16N 38°16' E 006°25'6 8.3
2014-Jul-18 01:33N 38°15' E 006°32'9 9.0
2014-Jul-18 00:30N 38°12' E 006°44'13 9.1
2014-Jul-17 23:07N 38°10' E 006°59'7 8.2
2014-Jul-17 22:17N 38°09' E 007°08'7 8.6
2014-Jul-17 21:29N 38°08' E 007°17'260 7.8
2014-Jul-16 12:19N 36°47' E 012°28'117 5.6
2014-Jul-15 15:31N 35°50' E 014°36'1 1.0
2014-Jul-15 14:33N 35°50' E 014°37'9 9.4
2014-Jul-15 13:33N 35°55' E 014°47'4 1.7
2014-Jul-15 11:12N 35°57' E 014°51'0 0.0
2014-Jul-15 10:30N 35°57' E 014°51'0 0.0
2014-Jul-15 09:12N 35°57' E 014°51'  
Track history (hours):
 
Tides and Currents Weather Stations Pressure Air Temp Water Temp Dewpoint Dewpoint Depression Visibility Wind Speed Wind Dir Waves Ship Positions

Peleus

Last reported at 2014-Jul-23 04:28 UTC. Time now 2014-Jul-23 07:47 UTC.
Position N 39°37' W 000°10'.

Length 88 m; draft 5.7 m.

Type: Ship. MMSI: 305810000.

Date/timePositionNaut miles runAvg speedWind from/ knotsBaromVisibWave heightAir tempDewpointWater temp
2014-Jul-23 04:28N 39°37' W 000°10'0 0.0
2014-Jul-23 03:22N 39°37' W 000°10'0 0.0
2014-Jul-23 02:28N 39°37' W 000°10'0 0.0
2014-Jul-23 01:28N 39°37' W 000°10'0 0.0
2014-Jul-23 00:28N 39°37' W 000°10'0 0.0
2014-Jul-22 23:28N 39°37' W 000°10'0 0.0
2014-Jul-22 22:31N 39°37' W 000°10'0 0.0
2014-Jul-22 19:10N 39°37' W 000°10'0 0.0
2014-Jul-22 18:28N 39°37' W 000°10'2 2.1
2014-Jul-22 17:19N 39°38' W 000°12'1 0.1
2014-Jul-22 00:31N 39°39' W 000°13'3 0.1
2014-Jul-20 03:03N 39°37' W 000°09'0 0.0
2014-Jul-20 00:27N 39°37' W 000°10'0 0.0
2014-Jul-19 23:27N 39°37' W 000°10'2 0.3
2014-Jul-19 16:21N 39°37' W 000°07'7 7.8
2014-Jul-19 15:25N 39°34' E 000°02'7 8.4
2014-Jul-19 14:33N 39°33' E 000°11'8 8.4
2014-Jul-19 13:33N 39°31' E 000°22'19 8.4
2014-Jul-19 11:16N 39°26' E 000°46'14 8.2
2014-Jul-19 09:30N 39°23' E 001°04'8 7.9
2014-Jul-19 08:33N 39°21' E 001°14'8 7.9
2014-Jul-19 07:33N 39°19' E 001°24'8 8.3
2014-Jul-19 06:33N 39°17' E 001°34'8 8.1
2014-Jul-19 05:33N 39°16' E 001°44'8 8.2
2014-Jul-19 04:33N 39°14' E 001°55'8 8.4
2014-Jul-19 03:33N 39°12' E 002°05'8 8.4
2014-Jul-19 02:33N 39°10' E 002°16'8 8.2
2014-Jul-19 01:33N 39°08' E 002°26'8 7.9
2014-Jul-19 00:33N 39°07' E 002°36'8 7.9
2014-Jul-18 23:33N 39°05' E 002°46'8 7.8
2014-Jul-18 22:33N 39°03' E 002°56'8 7.8
2014-Jul-18 21:33N 39°02' E 003°06'8 8.0
2014-Jul-18 20:33N 38°60' E 003°16'8 8.0
2014-Jul-18 19:33N 38°58' E 003°26'8 8.1
2014-Jul-18 18:33N 38°56' E 003°36'8 8.1
2014-Jul-18 17:33N 38°54' E 003°46'8 8.1
2014-Jul-18 16:32N 38°52' E 003°56'8 8.3
2014-Jul-18 15:33N 38°50' E 004°06'17 8.3
2014-Jul-18 13:33N 38°46' E 004°27'8 8.3
2014-Jul-18 12:33N 38°44' E 004°37'8 8.3
2014-Jul-18 11:33N 38°41' E 004°47'8 8.4
2014-Jul-18 10:33N 38°39' E 004°58'9 8.6
2014-Jul-18 09:33N 38°37' E 005°08'10 8.4
2014-Jul-18 08:20N 38°34' E 005°21'7 8.4
2014-Jul-18 07:33N 38°32' E 005°29'8 8.5
2014-Jul-18 06:33N 38°30' E 005°39'9 8.7
2014-Jul-18 05:33N 38°27' E 005°50'10 8.6
2014-Jul-18 04:26N 38°23' E 006°01'8 8.8
2014-Jul-18 03:32N 38°20' E 006°11'12 9.4
2014-Jul-18 02:16N 38°16' E 006°25'6 8.3
2014-Jul-18 01:33N 38°15' E 006°32'9 9.0
2014-Jul-18 00:30N 38°12' E 006°44'13 9.1
2014-Jul-17 23:07N 38°10' E 006°59'7 8.2
2014-Jul-17 22:17N 38°09' E 007°08'7 8.6
2014-Jul-17 21:29N 38°08' E 007°17'260 7.8
2014-Jul-16 12:19N 36°47' E 012°28'117 5.6
2014-Jul-15 15:31N 35°50' E 014°36'1 1.0
2014-Jul-15 14:33N 35°50' E 014°37'9 9.4
2014-Jul-15 13:33N 35°55' E 014°47'4 1.7
2014-Jul-15 11:12N 35°57' E 014°51'0 0.0
2014-Jul-15 10:30N 35°57' E 014°51'0 0.0
2014-Jul-15 09:12N 35°57' E 014°51'  

Dump ship's entire track history